Pagrindinis puslapis
METAR-TAF:

METAR-TAF

Oro uostai :

Mykolajivas, Ukraina

platuma: 47-03-29N, ilguma: 031-55-15E, Aukštis: 56 m

Dabartinis oras

Ataskaita buvo paskelbta 27 minutes, ne 15:30 UTC
Vėjas 4 kt iš Pietų/Pietryčių
Temperatūra 24°C
Drėgmė 36%
Slėgis 1018 hPa
Matomumas 10 km arba daugiau
nėra debesų žemiau 1500 m ir nėra kamuolinių lietaus debesų

METAR: UKON 281530Z 16002MPS CAVOK 24/08 Q1018 R04/090075 NOSIG

Laikas: 18:57 (15:57 UTC)

Prognozė

Ataskaita buvo paskelbta 1 valandą ir 55 minutes, ne 14:02 UTC
Prognozė galioja nuo 28 metu 15 UTC su 28 metu 24 UTC
Vėjas 12 kt iš Pietryčių su gūsio iki 23 kt
Matomumas 10 km arba daugiau
Išsisklaidę debesys ne aukštis 2000 ft, Liūtiniai kamuoliniai debesys.

TAF: UKON 281402Z 2815/2824 13006G12MPS 9999 SCT020CB TX25/2815Z TN14/2824Z

Orai ataskaitas ir orų prognozės (METAR, TAF).

turimą stotys yra geltonos ir raudonos taškus žemėlapyje.

Perkelti pele per norėdami pamatyti stoties vardą.

Tada spustelėkite, norėdami matyti oro stebėjimo ir prognozės.

Norėdami pakeisti žemėlapį: spustelėkite ant žalios mygtukų su juodo kryžiaus žemyn,; žalią mygtuką su brūkšneliu, jei norite nutolinti; arba žalių rodyklių gretimoms žemėlapius.


METAR-TAF: